createdAt,value
2017-10-05T00:02:11.576Z,0.50
2017-10-05T00:04:39.197Z,0.50
2017-10-05T00:07:06.787Z,0.93
2017-10-05T00:09:34.424Z,0.50
2017-10-05T00:12:02.020Z,0.40
2017-10-05T00:14:29.755Z,0.63
2017-10-05T00:16:57.392Z,0.50
2017-10-05T00:19:25.049Z,0.50
2017-10-05T00:21:52.634Z,0.40
2017-10-05T00:24:20.234Z,0.60
2017-10-05T00:26:49.339Z,0.50
2017-10-05T00:29:17.761Z,0.63
2017-10-05T00:31:45.347Z,0.70
2017-10-05T00:34:12.953Z,0.40
2017-10-05T00:36:41.509Z,0.43
2017-10-05T00:39:09.083Z,0.40
2017-10-05T00:41:37.495Z,0.30
2017-10-05T00:44:05.079Z,0.30
2017-10-05T00:46:32.673Z,0.60
2017-10-05T00:49:01.068Z,0.30
2017-10-05T00:51:29.453Z,0.80
2017-10-05T00:53:57.122Z,0.50
2017-10-05T00:56:24.732Z,0.50
2017-10-05T00:58:52.565Z,0.40
2017-10-05T01:01:20.199Z,0.40
2017-10-05T01:03:48.563Z,0.50
2017-10-05T01:06:16.937Z,0.40
2017-10-05T01:08:45.328Z,0.40
2017-10-05T01:11:13.688Z,0.50
2017-10-05T01:13:41.315Z,0.40
2017-10-05T01:16:08.985Z,0.57
2017-10-05T01:18:36.677Z,0.50
2017-10-05T01:21:05.347Z,0.30
2017-10-05T01:23:32.967Z,0.40
2017-10-05T01:26:00.611Z,0.50
2017-10-05T01:28:28.209Z,0.30
2017-10-05T01:30:55.947Z,0.60
2017-10-05T01:33:23.621Z,0.40
2017-10-05T01:35:51.422Z,0.43
2017-10-05T01:38:19.035Z,0.47
2017-10-05T01:40:46.660Z,0.40
2017-10-05T01:43:14.254Z,0.47
2017-10-05T01:45:41.843Z,0.30
2017-10-05T01:48:09.457Z,0.40
2017-10-05T01:50:37.824Z,0.40
2017-10-05T01:53:06.221Z,0.40
2017-10-05T01:55:33.794Z,0.50
2017-10-05T01:58:01.369Z,0.50
2017-10-05T02:00:28.972Z,0.40
2017-10-05T02:02:56.562Z,0.57
2017-10-05T02:05:24.893Z,0.40
2017-10-05T02:07:52.521Z,0.40
2017-10-05T02:10:20.181Z,0.80
2017-10-05T02:12:47.813Z,0.30
2017-10-05T02:15:16.137Z,0.50
2017-10-05T02:17:43.752Z,0.60
2017-10-05T02:20:12.135Z,0.50
2017-10-05T02:22:40.475Z,0.37
2017-10-05T02:25:08.198Z,0.37
2017-10-05T02:27:35.820Z,0.60
2017-10-05T02:30:03.414Z,0.40
2017-10-05T02:32:31.051Z,0.40
2017-10-05T02:34:59.483Z,0.70
2017-10-05T02:37:27.046Z,0.50
2017-10-05T02:39:54.656Z,0.43
2017-10-05T02:42:23.268Z,0.40
2017-10-05T02:44:50.870Z,0.30
2017-10-05T02:47:18.447Z,0.60
2017-10-05T02:49:46.838Z,0.47
2017-10-05T02:52:15.284Z,0.40
2017-10-05T02:54:42.871Z,0.30
2017-10-05T02:57:11.327Z,0.40
2017-10-05T02:59:38.980Z,0.33
2017-10-05T03:02:07.432Z,0.50
2017-10-05T03:04:35.028Z,0.30
2017-10-05T03:07:02.747Z,0.30
2017-10-05T03:09:30.353Z,0.40
2017-10-05T03:11:57.942Z,0.33
2017-10-05T03:14:26.355Z,0.40
2017-10-05T03:16:53.971Z,0.30
2017-10-05T03:19:21.604Z,0.50
2017-10-05T03:21:49.382Z,0.40
2017-10-05T03:24:17.006Z,0.33
2017-10-05T03:26:44.596Z,0.40
2017-10-05T03:29:12.179Z,0.30
2017-10-05T03:31:40.575Z,0.40
2017-10-05T03:34:08.163Z,0.30
2017-10-05T03:36:35.830Z,0.40
2017-10-05T03:39:03.420Z,0.30
2017-10-05T03:41:31.002Z,0.30
2017-10-05T03:43:59.380Z,0.40
2017-10-05T03:46:27.742Z,0.40
2017-10-05T03:48:55.326Z,0.40
2017-10-05T03:51:23.700Z,0.40
2017-10-05T03:53:52.092Z,0.43
2017-10-05T03:56:20.451Z,0.50
2017-10-05T03:58:48.067Z,0.40
2017-10-05T04:01:15.923Z,0.40
2017-10-05T04:03:43.602Z,0.70
2017-10-05T04:06:11.182Z,0.40
2017-10-05T04:08:38.758Z,0.40
2017-10-05T04:11:07.136Z,0.30
2017-10-05T04:13:34.735Z,0.30
2017-10-05T04:16:02.386Z,0.30
2017-10-05T04:18:29.988Z,0.30
2017-10-05T04:20:57.588Z,0.40
2017-10-05T04:23:25.968Z,0.40
2017-10-05T04:25:54.322Z,0.30
2017-10-05T04:28:21.952Z,0.40
2017-10-05T04:30:49.572Z,0.60
2017-10-05T04:33:17.982Z,0.30
2017-10-05T04:35:45.568Z,0.67
2017-10-05T04:38:13.197Z,0.30
2017-10-05T04:40:40.790Z,0.40
2017-10-05T04:43:08.368Z,0.40
2017-10-05T04:45:36.115Z,0.50
2017-10-05T04:48:03.708Z,0.33
2017-10-05T04:50:32.058Z,1.00
2017-10-05T04:52:59.684Z,0.40
2017-10-05T04:55:27.269Z,0.30
2017-10-05T04:57:54.906Z,0.60
2017-10-05T05:00:22.511Z,0.40
2017-10-05T05:02:50.148Z,0.30
2017-10-05T05:05:17.753Z,0.40
2017-10-05T05:07:46.116Z,0.40
2017-10-05T05:10:13.726Z,0.37
2017-10-05T05:12:41.310Z,1.07
2017-10-05T05:15:09.696Z,0.70
2017-10-05T05:17:37.318Z,0.40
2017-10-05T05:20:05.024Z,0.40
2017-10-05T05:22:32.644Z,0.33
2017-10-05T05:25:00.220Z,0.40
2017-10-05T05:27:27.832Z,0.60
2017-10-05T05:29:56.204Z,0.60
2017-10-05T05:32:23.855Z,0.50
2017-10-05T05:34:51.474Z,1.03
2017-10-05T05:37:19.045Z,1.33
2017-10-05T05:39:46.653Z,0.77
2017-10-05T05:42:15.364Z,0.63
2017-10-05T05:44:42.940Z,1.00
2017-10-05T05:47:10.600Z,0.70
2017-10-05T05:49:38.341Z,0.93
2017-10-05T05:52:07.468Z,1.17
2017-10-05T05:54:35.080Z,1.03
2017-10-05T05:57:02.678Z,0.80
2017-10-05T05:59:30.342Z,0.97
2017-10-05T06:01:58.319Z,0.93
2017-10-05T06:04:25.936Z,1.23
2017-10-05T06:06:54.430Z,1.30
2017-10-05T06:09:22.849Z,1.03
2017-10-05T06:11:50.428Z,1.07
2017-10-05T06:14:18.020Z,1.43
2017-10-05T06:16:46.536Z,1.50
2017-10-05T06:19:14.128Z,1.17
2017-10-05T06:21:41.764Z,0.73
2017-10-05T06:24:09.418Z,1.30
2017-10-05T06:26:37.042Z,2.33
2017-10-05T06:29:05.563Z,0.97
2017-10-05T06:31:33.158Z,0.70
2017-10-05T06:34:00.800Z,0.90
2017-10-05T06:36:28.432Z,0.60
2017-10-05T06:38:56.152Z,0.87
2017-10-05T06:41:24.658Z,0.80
2017-10-05T06:43:53.035Z,0.80
2017-10-05T06:46:21.544Z,0.90
2017-10-05T06:48:49.166Z,0.80
2017-10-05T06:51:16.833Z,0.70
2017-10-05T06:53:45.340Z,0.97
2017-10-05T06:56:12.932Z,0.80
2017-10-05T06:58:40.516Z,0.80
2017-10-05T07:01:08.156Z,0.60
2017-10-05T07:03:35.742Z,0.70
2017-10-05T07:06:03.353Z,0.57
2017-10-05T07:08:30.921Z,0.90
2017-10-05T07:10:58.497Z,0.70
2017-10-05T07:13:26.144Z,0.90
2017-10-05T07:15:53.729Z,0.70
2017-10-05T07:18:21.378Z,0.70
2017-10-05T07:20:48.931Z,0.63
2017-10-05T07:23:16.633Z,0.80
2017-10-05T07:25:45.024Z,0.67
2017-10-05T07:28:13.403Z,0.77
2017-10-05T07:30:41.780Z,0.70
2017-10-05T07:33:10.208Z,0.50
2017-10-05T07:35:37.779Z,0.80
2017-10-05T07:38:05.376Z,0.73
2017-10-05T07:40:33.755Z,0.60
2017-10-05T07:43:02.084Z,0.70
2017-10-05T07:45:29.735Z,1.20
2017-10-05T07:47:58.118Z,0.80
2017-10-05T07:50:25.746Z,0.73
2017-10-05T07:52:53.466Z,0.90
2017-10-05T07:55:21.080Z,0.83
2017-10-05T07:57:48.860Z,1.00
2017-10-05T08:00:16.484Z,0.83
2017-10-05T08:02:44.818Z,1.17
2017-10-05T08:05:12.420Z,0.63
2017-10-05T08:07:40.826Z,0.70
2017-10-05T08:10:08.384Z,0.60
2017-10-05T08:12:36.731Z,0.70
2017-10-05T08:15:04.416Z,0.70
2017-10-05T08:17:33.022Z,1.00
2017-10-05T08:20:00.620Z,0.60
2017-10-05T08:22:28.240Z,0.60
2017-10-05T08:24:55.810Z,1.07
2017-10-05T08:27:23.424Z,0.73
2017-10-05T08:29:51.823Z,0.93
2017-10-05T08:32:20.170Z,0.70
2017-10-05T08:34:47.970Z,0.67
2017-10-05T08:37:15.642Z,1.10
2017-10-05T08:39:43.292Z,0.50
2017-10-05T08:42:10.876Z,0.60
2017-10-05T08:44:38.559Z,0.70
2017-10-05T08:47:06.177Z,0.90
2017-10-05T08:49:33.769Z,0.70
2017-10-05T08:52:01.383Z,0.73
2017-10-05T08:54:29.725Z,0.70
2017-10-05T08:56:57.317Z,0.97
2017-10-05T08:59:25.693Z,0.67
2017-10-05T09:01:54.170Z,0.40
2017-10-05T09:04:22.507Z,0.70
2017-10-05T09:06:50.083Z,0.80
2017-10-05T09:09:17.817Z,0.77
2017-10-05T09:11:45.613Z,0.80
2017-10-05T09:14:13.239Z,0.50
2017-10-05T09:16:40.909Z,0.90
2017-10-05T09:19:08.547Z,0.60
2017-10-05T09:21:36.147Z,0.80
2017-10-05T09:26:27.509Z,0.60
2017-10-05T09:28:55.086Z,0.70
2017-10-05T09:31:23.423Z,0.50
2017-10-05T09:33:51.045Z,0.60
2017-10-05T09:36:18.680Z,0.50
2017-10-05T09:38:47.103Z,0.90
2017-10-05T09:41:14.749Z,0.50
2017-10-05T09:43:42.374Z,0.60
2017-10-05T09:46:10.743Z,0.60
2017-10-05T09:48:38.371Z,0.60
2017-10-05T09:51:05.952Z,0.50
2017-10-05T09:53:33.542Z,0.50
2017-10-05T09:56:01.929Z,0.50
2017-10-05T09:58:30.309Z,0.80
2017-10-05T10:00:58.839Z,0.70
2017-10-05T10:03:26.426Z,0.53
2017-10-05T10:05:54.101Z,0.50
2017-10-05T10:08:22.503Z,0.70
2017-10-05T10:10:50.097Z,0.60
2017-10-05T10:13:17.720Z,1.13
2017-10-05T10:15:45.360Z,0.43
2017-10-05T10:18:13.749Z,0.97
2017-10-05T10:20:42.158Z,0.80
2017-10-05T10:23:09.741Z,0.50
2017-10-05T10:25:37.441Z,0.43
2017-10-05T10:28:05.777Z,1.83
2017-10-05T10:30:33.373Z,0.50
2017-10-05T10:33:02.473Z,0.50
2017-10-05T10:35:30.055Z,0.60
2017-10-05T10:37:57.675Z,0.63
2017-10-05T10:40:26.783Z,1.03
2017-10-05T10:42:55.177Z,0.70
2017-10-05T10:45:23.593Z,1.00
2017-10-05T10:47:51.181Z,1.00
2017-10-05T10:50:18.927Z,1.20
2017-10-05T10:52:46.534Z,0.80
2017-10-05T10:55:15.029Z,1.10
2017-10-05T10:57:43.506Z,0.80
2017-10-05T11:00:11.897Z,1.60
2017-10-05T11:02:39.475Z,1.13
2017-10-05T11:05:07.093Z,1.00
2017-10-05T11:07:35.459Z,1.00
2017-10-05T11:10:03.017Z,0.97
2017-10-05T11:12:30.614Z,1.07
2017-10-05T11:14:58.512Z,0.70
2017-10-05T11:17:26.083Z,0.80
2017-10-05T11:19:53.665Z,0.77
2017-10-05T11:22:21.383Z,1.17
2017-10-05T11:24:48.967Z,1.03
2017-10-05T11:27:16.580Z,0.80
2017-10-05T11:29:44.941Z,0.70
2017-10-05T11:32:13.301Z,1.13
2017-10-05T11:34:40.886Z,0.90
2017-10-05T11:37:09.255Z,0.80
2017-10-05T11:39:37.003Z,0.60
2017-10-05T11:42:04.612Z,1.17
2017-10-05T11:44:32.499Z,0.77
2017-10-05T11:47:00.077Z,0.80
2017-10-05T11:49:27.671Z,0.60
2017-10-05T11:51:56.263Z,0.67
2017-10-05T11:54:24.661Z,0.80
2017-10-05T11:56:52.245Z,0.60
2017-10-05T11:59:19.847Z,0.60
2017-10-05T12:01:48.397Z,0.90
2017-10-05T12:04:16.039Z,0.67
2017-10-05T12:06:43.659Z,0.50
2017-10-05T12:09:12.135Z,0.70
2017-10-05T12:11:39.765Z,0.67
2017-10-05T12:14:07.403Z,0.70
2017-10-05T12:16:34.979Z,0.80
2017-10-05T12:19:02.604Z,0.60
2017-10-05T12:21:30.339Z,0.60
2017-10-05T12:23:57.924Z,0.50
2017-10-05T12:26:25.553Z,1.10
2017-10-05T12:28:53.146Z,0.63
2017-10-05T12:31:21.497Z,0.50
2017-10-05T12:33:49.117Z,0.57
2017-10-05T12:36:16.753Z,0.70
2017-10-05T12:38:44.335Z,0.93
2017-10-05T12:41:11.940Z,0.97
2017-10-05T12:43:40.319Z,0.93
2017-10-05T12:46:07.909Z,0.70
2017-10-05T12:48:35.532Z,0.50
2017-10-05T12:51:03.108Z,0.60
2017-10-05T12:53:31.476Z,0.67
2017-10-05T12:55:59.346Z,0.80
2017-10-05T12:58:26.961Z,0.70
2017-10-05T13:00:54.561Z,0.60
2017-10-05T13:03:22.957Z,0.80
2017-10-05T13:05:51.291Z,0.77
2017-10-05T13:08:18.868Z,0.60
2017-10-05T13:10:46.526Z,0.77
2017-10-05T13:13:14.127Z,0.47
2017-10-05T13:15:42.633Z,0.67
2017-10-05T13:18:10.257Z,0.50
2017-10-05T13:20:38.640Z,0.50
2017-10-05T13:23:07.009Z,0.53
2017-10-05T13:25:34.613Z,0.53
2017-10-05T13:28:02.285Z,0.40
2017-10-05T13:30:29.887Z,0.80
2017-10-05T13:32:57.489Z,0.50
2017-10-05T13:35:25.150Z,0.80
2017-10-05T13:37:52.749Z,0.60
2017-10-05T13:40:20.329Z,0.60
2017-10-05T13:42:47.938Z,0.60
2017-10-05T13:45:15.670Z,0.50
2017-10-05T13:47:44.285Z,0.40
2017-10-05T13:50:11.891Z,0.60
2017-10-05T13:52:39.505Z,0.40
2017-10-05T13:55:07.270Z,0.80
2017-10-05T13:57:34.870Z,0.50
2017-10-05T14:00:02.525Z,0.70
2017-10-05T14:02:30.156Z,0.40
2017-10-05T14:04:57.994Z,0.40
2017-10-05T14:07:25.647Z,0.60
2017-10-05T14:09:54.009Z,0.57
2017-10-05T14:12:21.595Z,0.47
2017-10-05T14:14:49.222Z,0.63
2017-10-05T14:17:16.822Z,0.47
2017-10-05T14:19:44.722Z,0.50
2017-10-05T14:22:12.389Z,0.50
2017-10-05T14:24:40.177Z,0.57
2017-10-05T14:27:07.797Z,0.47
2017-10-05T14:29:35.372Z,0.50
2017-10-05T14:32:02.985Z,0.50
2017-10-05T14:34:31.401Z,0.50
2017-10-05T14:36:59.139Z,0.60
2017-10-05T14:39:26.831Z,0.50
2017-10-05T14:41:54.553Z,0.67
2017-10-05T14:44:22.971Z,0.37
2017-10-05T14:46:50.565Z,0.60
2017-10-05T14:49:18.167Z,0.40
2017-10-05T14:51:45.803Z,0.83
2017-10-05T14:54:14.240Z,0.50
2017-10-05T14:56:41.864Z,0.40
2017-10-05T14:59:10.221Z,0.70
2017-10-05T15:01:37.816Z,1.20
2017-10-05T15:04:05.503Z,0.83
2017-10-05T15:06:33.110Z,0.60
2017-10-05T15:09:01.466Z,0.70
2017-10-05T15:11:29.057Z,0.60
2017-10-05T15:13:57.439Z,0.70
2017-10-05T15:16:25.871Z,1.17
2017-10-05T15:18:53.763Z,0.70
2017-10-05T15:21:21.341Z,0.60
2017-10-05T15:23:49.726Z,0.97
2017-10-05T15:26:17.461Z,0.90
2017-10-05T15:28:45.057Z,2.20
2017-10-05T15:31:12.662Z,1.93
2017-10-05T15:33:40.409Z,2.67
2017-10-05T15:36:08.013Z,2.00
2017-10-05T15:38:35.654Z,2.80
2017-10-05T15:41:03.264Z,3.60
2017-10-05T15:43:30.880Z,2.83
2017-10-05T15:45:58.497Z,2.13
2017-10-05T15:48:26.118Z,3.00
2017-10-05T15:50:53.808Z,2.50
2017-10-05T15:53:21.592Z,2.87
2017-10-05T15:55:49.218Z,1.70
2017-10-05T15:58:17.590Z,2.03
2017-10-05T16:00:46.022Z,3.30
2017-10-05T16:03:13.648Z,2.17
2017-10-05T16:05:41.368Z,2.00
2017-10-05T16:08:09.002Z,1.03
2017-10-05T16:10:36.592Z,1.23
2017-10-05T16:13:04.216Z,0.93
2017-10-05T16:15:31.810Z,0.73
2017-10-05T16:17:59.407Z,0.83
2017-10-05T16:20:27.774Z,0.50
2017-10-05T16:22:56.155Z,0.70
2017-10-05T16:25:24.578Z,0.90
2017-10-05T16:27:52.216Z,1.03
2017-10-05T16:30:20.226Z,0.57
2017-10-05T16:32:47.824Z,0.50
2017-10-05T16:35:15.411Z,0.53
2017-10-05T16:37:43.092Z,0.50
2017-10-05T16:40:11.124Z,1.07
2017-10-05T16:42:39.673Z,0.50
2017-10-05T16:45:07.337Z,0.67
2017-10-05T16:47:35.020Z,0.60
2017-10-05T16:50:02.628Z,0.57
2017-10-05T16:52:30.236Z,0.70
2017-10-05T16:54:57.872Z,0.80
2017-10-05T16:57:25.440Z,0.90
2017-10-05T16:59:53.246Z,0.70
2017-10-05T17:02:21.615Z,0.73
2017-10-05T17:04:50.034Z,0.50
2017-10-05T17:07:17.630Z,0.90
2017-10-05T17:09:45.240Z,0.60
2017-10-05T17:12:13.709Z,1.03
2017-10-05T17:14:42.065Z,0.60
2017-10-05T17:17:09.697Z,0.83
2017-10-05T17:19:37.296Z,0.60
2017-10-05T17:22:06.040Z,1.00
2017-10-05T17:24:33.822Z,0.73
2017-10-05T17:27:01.402Z,0.60
2017-10-05T17:29:29.027Z,0.60
2017-10-05T17:31:56.670Z,1.10
2017-10-05T17:34:24.255Z,0.67
2017-10-05T17:36:51.860Z,0.70
2017-10-05T17:39:20.246Z,0.90
2017-10-05T17:41:48.033Z,0.70
2017-10-05T17:44:15.797Z,0.60
2017-10-05T17:46:43.386Z,0.80
2017-10-05T17:49:11.178Z,1.20
2017-10-05T17:51:39.563Z,1.17
2017-10-05T17:54:07.988Z,0.60
2017-10-05T17:56:35.632Z,0.70
2017-10-05T17:59:03.211Z,0.80
2017-10-05T18:01:30.829Z,0.60
2017-10-05T18:03:59.171Z,0.93
2017-10-05T18:06:26.740Z,0.67
2017-10-05T18:08:55.866Z,0.70
2017-10-05T18:11:24.238Z,0.70
2017-10-05T18:13:52.614Z,0.63
2017-10-05T18:16:20.966Z,0.90
2017-10-05T18:18:48.587Z,0.53
2017-10-05T18:21:16.220Z,0.60
2017-10-05T18:23:44.579Z,0.70
2017-10-05T18:26:12.241Z,0.50
2017-10-05T18:28:39.889Z,0.50
2017-10-05T18:31:07.534Z,0.40
2017-10-05T18:33:35.245Z,1.07
2017-10-05T18:36:04.083Z,0.50
2017-10-05T18:38:31.744Z,0.50
2017-10-05T18:40:59.354Z,0.70
2017-10-05T18:43:27.694Z,0.60
2017-10-05T18:45:55.347Z,0.40
2017-10-05T18:48:22.963Z,0.50
2017-10-05T18:50:50.628Z,0.83
2017-10-05T18:53:19.018Z,0.53
2017-10-05T18:55:46.729Z,0.50
2017-10-05T18:58:14.365Z,0.60
2017-10-05T19:00:42.002Z,0.67
2017-10-05T19:03:09.598Z,0.60
2017-10-05T19:05:37.224Z,0.90
2017-10-05T19:08:04.841Z,1.13
2017-10-05T19:10:32.422Z,0.80
2017-10-05T19:13:00.783Z,1.00
2017-10-05T19:15:29.182Z,1.37
2017-10-05T19:17:57.568Z,1.00
2017-10-05T19:20:25.564Z,0.90
2017-10-05T19:22:53.160Z,0.90
2017-10-05T19:25:20.764Z,0.87
2017-10-05T19:27:49.335Z,1.23
2017-10-05T19:30:17.869Z,0.60
2017-10-05T19:32:45.495Z,0.93
2017-10-05T19:35:13.304Z,0.70
2017-10-05T19:37:40.929Z,0.77
2017-10-05T19:40:08.517Z,1.37
2017-10-05T19:42:36.370Z,0.90
2017-10-05T19:45:04.014Z,0.97
2017-10-05T19:47:31.613Z,0.53
2017-10-05T19:49:59.209Z,0.60
2017-10-05T19:52:27.623Z,0.70
2017-10-05T19:54:55.324Z,0.67
2017-10-05T19:57:22.946Z,1.17
2017-10-05T19:59:50.566Z,1.40
2017-10-05T20:02:18.986Z,1.10
2017-10-05T20:04:46.572Z,0.70
2017-10-05T20:07:14.213Z,0.90
2017-10-05T20:09:41.876Z,1.00
2017-10-05T20:12:09.468Z,1.23
2017-10-05T20:14:43.550Z,1.10
2017-10-05T20:17:12.003Z,0.70
2017-10-05T20:22:49.863Z,0.73
2017-10-05T20:25:32.345Z,0.87
2017-10-05T20:28:11.806Z,1.10
2017-10-05T20:30:41.095Z,0.83
2017-10-05T20:33:08.708Z,0.73
2017-10-05T20:35:36.290Z,0.80
2017-10-05T20:38:04.833Z,0.60
2017-10-05T20:40:32.425Z,0.83
2017-10-05T20:43:00.792Z,0.73
2017-10-05T20:45:29.183Z,0.73
2017-10-05T20:47:57.799Z,0.70
2017-10-05T20:50:25.400Z,0.80
2017-10-05T20:52:52.988Z,0.60
2017-10-05T20:55:21.449Z,0.53
2017-10-05T20:57:49.978Z,0.80
2017-10-05T21:00:17.817Z,0.70
2017-10-05T21:02:45.400Z,0.60
2017-10-05T21:05:13.041Z,0.50
2017-10-05T21:07:41.380Z,0.60
2017-10-05T21:10:09.065Z,0.50
2017-10-05T21:12:36.689Z,0.53
2017-10-05T21:15:04.297Z,0.40
2017-10-05T21:17:31.878Z,0.90
2017-10-05T21:19:59.500Z,0.70
2017-10-05T21:22:27.268Z,0.43
2017-10-05T21:24:55.842Z,0.67
2017-10-05T21:27:23.453Z,0.60
2017-10-05T21:29:51.032Z,0.60
2017-10-05T21:32:18.636Z,0.67
2017-10-05T21:34:47.297Z,0.40
2017-10-05T21:37:14.890Z,0.50
2017-10-05T21:39:43.324Z,0.60
2017-10-05T21:42:10.922Z,0.57
2017-10-05T21:44:39.477Z,0.73
2017-10-05T21:47:07.142Z,0.50
2017-10-05T21:49:34.778Z,0.50
2017-10-05T21:52:02.396Z,0.50
2017-10-05T21:54:30.724Z,0.53
2017-10-05T21:56:58.303Z,0.50
2017-10-05T21:59:25.926Z,0.47
2017-10-05T22:01:53.510Z,0.43
2017-10-05T22:04:21.087Z,1.00
2017-10-05T22:06:48.690Z,0.70
2017-10-05T22:09:16.265Z,0.53
2017-10-05T22:11:43.893Z,0.60
2017-10-05T22:14:12.235Z,0.60
2017-10-05T22:16:39.876Z,0.60
2017-10-05T22:19:07.641Z,0.53
2017-10-05T22:21:35.280Z,0.50
2017-10-05T22:24:02.861Z,0.60
2017-10-05T22:26:30.430Z,0.60
2017-10-05T22:28:58.048Z,0.60
2017-10-05T22:31:26.401Z,0.90
2017-10-05T22:33:54.103Z,0.57
2017-10-05T22:36:21.748Z,0.50
2017-10-05T22:38:50.171Z,0.43
2017-10-05T22:41:17.781Z,0.70
2017-10-05T22:43:46.171Z,0.60
2017-10-05T22:46:14.561Z,0.50
2017-10-05T22:48:42.261Z,0.65
2017-10-05T22:51:09.857Z,0.60
2017-10-05T22:53:38.208Z,0.40
2017-10-05T22:56:05.840Z,0.70
2017-10-05T22:58:33.436Z,0.40
2017-10-05T23:01:01.043Z,0.47
2017-10-05T23:03:28.638Z,0.47
2017-10-05T23:05:56.279Z,0.50
2017-10-05T23:08:24.024Z,0.60
2017-10-05T23:10:51.804Z,0.50
2017-10-05T23:13:19.451Z,0.57
2017-10-05T23:15:47.117Z,0.60
2017-10-05T23:18:14.714Z,0.40
2017-10-05T23:20:42.352Z,0.67
2017-10-05T23:23:09.955Z,0.57
2017-10-05T23:25:39.033Z,0.50
2017-10-05T23:28:06.704Z,0.50
2017-10-05T23:30:34.457Z,0.60
2017-10-05T23:33:02.041Z,0.60
2017-10-05T23:35:29.668Z,0.60
2017-10-05T23:37:57.287Z,0.70
2017-10-05T23:40:25.621Z,0.50
2017-10-05T23:42:53.193Z,0.40
2017-10-05T23:45:20.772Z,0.50
2017-10-05T23:47:49.140Z,0.40
2017-10-05T23:50:16.723Z,0.53
2017-10-05T23:52:44.362Z,0.80
2017-10-05T23:55:12.724Z,0.40
2017-10-05T23:57:40.487Z,0.60
